sensor_id;sensor_type;location;lat;lon;timestamp;temperature;humidity
27188;DHT22;14708;50.872;5.306;2022-07-29T00:02:10;24.10;45.50
27188;DHT22;14708;50.872;5.306;2022-07-29T00:04:38;24.20;45.60
27188;DHT22;14708;50.872;5.306;2022-07-29T00:07:06;24.10;45.60
27188;DHT22;14708;50.872;5.306;2022-07-29T00:09:34;24.20;45.70
27188;DHT22;14708;50.872;5.306;2022-07-29T00:12:00;24.20;45.70
27188;DHT22;14708;50.872;5.306;2022-07-29T00:14:26;24.20;45.70
27188;DHT22;14708;50.872;5.306;2022-07-29T00:16:52;24.10;45.70
27188;DHT22;14708;50.872;5.306;2022-07-29T00:19:18;24.10;45.60
27188;DHT22;14708;50.872;5.306;2022-07-29T00:21:43;24.20;45.70
27188;DHT22;14708;50.872;5.306;2022-07-29T00:24:09;24.20;45.70
27188;DHT22;14708;50.872;5.306;2022-07-29T00:26:35;24.10;45.70
27188;DHT22;14708;50.872;5.306;2022-07-29T00:29:02;24.20;45.70
27188;DHT22;14708;50.872;5.306;2022-07-29T00:31:29;24.10;45.80
27188;DHT22;14708;50.872;5.306;2022-07-29T00:33:55;24.10;45.90
27188;DHT22;14708;50.872;5.306;2022-07-29T00:36:21;24.10;45.80
27188;DHT22;14708;50.872;5.306;2022-07-29T00:38:47;24.10;45.80
27188;DHT22;14708;50.872;5.306;2022-07-29T00:41:14;24.10;45.80
27188;DHT22;14708;50.872;5.306;2022-07-29T00:43:39;24.10;46.00
27188;DHT22;14708;50.872;5.306;2022-07-29T00:46:06;24.10;45.90
27188;DHT22;14708;50.872;5.306;2022-07-29T00:48:32;24.10;46.00
27188;DHT22;14708;50.872;5.306;2022-07-29T00:50:58;24.10;46.00
27188;DHT22;14708;50.872;5.306;2022-07-29T00:53:25;24.10;46.00
27188;DHT22;14708;50.872;5.306;2022-07-29T00:55:53;24.10;46.10
27188;DHT22;14708;50.872;5.306;2022-07-29T00:58:20;24.10;46.20
27188;DHT22;14708;50.872;5.306;2022-07-29T01:00:46;24.10;46.20
27188;DHT22;14708;50.872;5.306;2022-07-29T01:03:11;24.10;46.10
27188;DHT22;14708;50.872;5.306;2022-07-29T01:05:37;24.10;46.10
27188;DHT22;14708;50.872;5.306;2022-07-29T01:08:05;24.10;46.10
27188;DHT22;14708;50.872;5.306;2022-07-29T01:10:31;24.10;46.30
27188;DHT22;14708;50.872;5.306;2022-07-29T01:12:58;24.10;46.30
27188;DHT22;14708;50.872;5.306;2022-07-29T01:15:24;24.10;46.40
27188;DHT22;14708;50.872;5.306;2022-07-29T01:18:11;24.10;46.30
27188;DHT22;14708;50.872;5.306;2022-07-29T01:26:59;24.10;46.50
27188;DHT22;14708;50.872;5.306;2022-07-29T01:29:36;24.00;46.40
27188;DHT22;14708;50.872;5.306;2022-07-29T01:32:08;24.00;46.50
27188;DHT22;14708;50.872;5.306;2022-07-29T01:34:52;24.00;46.40
27188;DHT22;14708;50.872;5.306;2022-07-29T01:37:26;24.00;46.50
27188;DHT22;14708;50.872;5.306;2022-07-29T01:39:56;24.00;46.60
27188;DHT22;14708;50.872;5.306;2022-07-29T01:42:44;24.00;46.50
27188;DHT22;14708;50.872;5.306;2022-07-29T01:45:17;24.00;46.50
27188;DHT22;14708;50.872;5.306;2022-07-29T01:50:49;24.00;46.60
27188;DHT22;14708;50.872;5.306;2022-07-29T01:53:26;24.00;46.70
27188;DHT22;14708;50.872;5.306;2022-07-29T01:55:54;24.00;46.70
27188;DHT22;14708;50.872;5.306;2022-07-29T01:58:22;24.00;46.60
27188;DHT22;14708;50.872;5.306;2022-07-29T02:00:49;24.00;46.70
27188;DHT22;14708;50.872;5.306;2022-07-29T02:03:17;24.00;46.80
27188;DHT22;14708;50.872;5.306;2022-07-29T02:05:45;24.00;46.80
27188;DHT22;14708;50.872;5.306;2022-07-29T02:08:13;24.00;47.00
27188;DHT22;14708;50.872;5.306;2022-07-29T02:10:42;24.00;47.00
27188;DHT22;14708;50.872;5.306;2022-07-29T02:13:10;24.00;47.00
27188;DHT22;14708;50.872;5.306;2022-07-29T02:15:37;24.00;47.10
27188;DHT22;14708;50.872;5.306;2022-07-29T02:18:09;23.90;47.00
27188;DHT22;14708;50.872;5.306;2022-07-29T02:20:37;23.90;46.90
27188;DHT22;14708;50.872;5.306;2022-07-29T02:23:03;24.00;47.00
27188;DHT22;14708;50.872;5.306;2022-07-29T02:25:29;24.00;47.20
27188;DHT22;14708;50.872;5.306;2022-07-29T02:27:58;23.90;47.10
27188;DHT22;14708;50.872;5.306;2022-07-29T02:30:27;23.90;47.20
27188;DHT22;14708;50.872;5.306;2022-07-29T02:32:54;23.90;47.10
27188;DHT22;14708;50.872;5.306;2022-07-29T02:35:21;23.90;47.20
27188;DHT22;14708;50.872;5.306;2022-07-29T02:37:48;23.90;47.30
27188;DHT22;14708;50.872;5.306;2022-07-29T02:40:37;23.90;47.20
27188;DHT22;14708;50.872;5.306;2022-07-29T02:43:05;23.90;47.30
27188;DHT22;14708;50.872;5.306;2022-07-29T02:45:32;23.90;47.20
27188;DHT22;14708;50.872;5.306;2022-07-29T02:48:00;23.90;47.30
27188;DHT22;14708;50.872;5.306;2022-07-29T02:50:38;23.90;47.30
27188;DHT22;14708;50.872;5.306;2022-07-29T02:53:16;23.90;47.30
27188;DHT22;14708;50.872;5.306;2022-07-29T02:55:44;23.90;47.30
27188;DHT22;14708;50.872;5.306;2022-07-29T02:58:30;23.90;47.40
27188;DHT22;14708;50.872;5.306;2022-07-29T03:00:58;23.90;47.30
27188;DHT22;14708;50.872;5.306;2022-07-29T03:03:28;23.90;47.30
27188;DHT22;14708;50.872;5.306;2022-07-29T03:05:57;23.90;47.50
27188;DHT22;14708;50.872;5.306;2022-07-29T03:08:23;23.90;47.40
27188;DHT22;14708;50.872;5.306;2022-07-29T03:10:50;23.90;47.40
27188;DHT22;14708;50.872;5.306;2022-07-29T03:13:17;23.90;47.50
27188;DHT22;14708;50.872;5.306;2022-07-29T03:15:44;23.90;47.30
27188;DHT22;14708;50.872;5.306;2022-07-29T03:18:11;23.90;47.30
27188;DHT22;14708;50.872;5.306;2022-07-29T03:20:39;23.80;47.40
27188;DHT22;14708;50.872;5.306;2022-07-29T03:23:06;23.90;47.60
27188;DHT22;14708;50.872;5.306;2022-07-29T03:25:31;23.90;47.40
27188;DHT22;14708;50.872;5.306;2022-07-29T03:27:57;23.80;47.40
27188;DHT22;14708;50.872;5.306;2022-07-29T03:30:23;23.80;47.50
27188;DHT22;14708;50.872;5.306;2022-07-29T03:32:52;23.80;47.30
27188;DHT22;14708;50.872;5.306;2022-07-29T03:35:21;23.80;47.50
27188;DHT22;14708;50.872;5.306;2022-07-29T03:37:48;23.80;47.50
27188;DHT22;14708;50.872;5.306;2022-07-29T03:40:22;23.80;47.60
27188;DHT22;14708;50.872;5.306;2022-07-29T03:42:48;23.80;47.60
27188;DHT22;14708;50.872;5.306;2022-07-29T03:45:18;23.80;47.60
27188;DHT22;14708;50.872;5.306;2022-07-29T03:47:48;23.80;47.70
27188;DHT22;14708;50.872;5.306;2022-07-29T03:50:16;23.80;47.50
27188;DHT22;14708;50.872;5.306;2022-07-29T03:52:45;23.80;47.70
27188;DHT22;14708;50.872;5.306;2022-07-29T03:55:11;23.80;47.90
27188;DHT22;14708;50.872;5.306;2022-07-29T03:57:38;23.80;47.60
27188;DHT22;14708;50.872;5.306;2022-07-29T04:00:05;23.80;47.70
27188;DHT22;14708;50.872;5.306;2022-07-29T04:02:32;23.80;47.80
27188;DHT22;14708;50.872;5.306;2022-07-29T04:04:58;23.80;47.80
27188;DHT22;14708;50.872;5.306;2022-07-29T04:07:24;23.80;47.80
27188;DHT22;14708;50.872;5.306;2022-07-29T04:09:50;23.80;47.80
27188;DHT22;14708;50.872;5.306;2022-07-29T04:12:16;23.80;47.90
27188;DHT22;14708;50.872;5.306;2022-07-29T04:14:41;23.70;47.70
27188;DHT22;14708;50.872;5.306;2022-07-29T04:17:07;23.70;48.00
27188;DHT22;14708;50.872;5.306;2022-07-29T04:19:33;23.70;47.80
27188;DHT22;14708;50.872;5.306;2022-07-29T04:21:59;23.70;48.00
27188;DHT22;14708;50.872;5.306;2022-07-29T04:24:25;23.70;47.90
27188;DHT22;14708;50.872;5.306;2022-07-29T04:26:51;23.70;48.00
27188;DHT22;14708;50.872;5.306;2022-07-29T04:29:17;23.70;48.00
27188;DHT22;14708;50.872;5.306;2022-07-29T04:31:43;23.70;48.10
27188;DHT22;14708;50.872;5.306;2022-07-29T04:34:10;23.70;48.10
27188;DHT22;14708;50.872;5.306;2022-07-29T04:36:35;23.70;48.00
27188;DHT22;14708;50.872;5.306;2022-07-29T04:39:01;23.70;48.10
27188;DHT22;14708;50.872;5.306;2022-07-29T04:41:28;23.70;48.20
27188;DHT22;14708;50.872;5.306;2022-07-29T04:43:53;23.70;48.10
27188;DHT22;14708;50.872;5.306;2022-07-29T04:46:19;23.70;48.30
27188;DHT22;14708;50.872;5.306;2022-07-29T04:48:45;23.70;48.30
27188;DHT22;14708;50.872;5.306;2022-07-29T04:51:12;23.70;48.60
27188;DHT22;14708;50.872;5.306;2022-07-29T04:53:37;23.70;48.40
27188;DHT22;14708;50.872;5.306;2022-07-29T04:56:03;23.70;48.40
27188;DHT22;14708;50.872;5.306;2022-07-29T04:58:29;23.70;48.40
27188;DHT22;14708;50.872;5.306;2022-07-29T05:00:54;23.70;48.40
27188;DHT22;14708;50.872;5.306;2022-07-29T05:03:20;23.70;48.40
27188;DHT22;14708;50.872;5.306;2022-07-29T05:05:46;23.70;48.60
27188;DHT22;14708;50.872;5.306;2022-07-29T05:08:11;23.70;48.60
27188;DHT22;14708;50.872;5.306;2022-07-29T05:10:37;23.70;48.60
27188;DHT22;14708;50.872;5.306;2022-07-29T05:13:07;23.70;48.50
27188;DHT22;14708;50.872;5.306;2022-07-29T05:15:36;23.80;48.30
27188;DHT22;14708;50.872;5.306;2022-07-29T05:18:03;23.80;48.30
27188;DHT22;14708;50.872;5.306;2022-07-29T05:20:29;23.70;48.60
27188;DHT22;14708;50.872;5.306;2022-07-29T05:23:02;23.70;49.10
27188;DHT22;14708;50.872;5.306;2022-07-29T05:25:29;23.70;49.60
27188;DHT22;14708;50.872;5.306;2022-07-29T05:27:55;23.80;50.70
27188;DHT22;14708;50.872;5.306;2022-07-29T05:30:21;23.70;51.30
27188;DHT22;14708;50.872;5.306;2022-07-29T05:32:46;23.70;51.80
27188;DHT22;14708;50.872;5.306;2022-07-29T05:35:13;23.70;52.20
27188;DHT22;14708;50.872;5.306;2022-07-29T05:37:38;23.70;52.50
27188;DHT22;14708;50.872;5.306;2022-07-29T05:40:05;23.60;53.50
27188;DHT22;14708;50.872;5.306;2022-07-29T05:42:31;23.60;52.90
27188;DHT22;14708;50.872;5.306;2022-07-29T05:44:56;23.70;52.90
27188;DHT22;14708;50.872;5.306;2022-07-29T05:47:23;23.70;53.00
27188;DHT22;14708;50.872;5.306;2022-07-29T05:49:49;23.70;52.80
27188;DHT22;14708;50.872;5.306;2022-07-29T05:52:14;23.70;52.90
27188;DHT22;14708;50.872;5.306;2022-07-29T05:54:40;23.70;53.00
27188;DHT22;14708;50.872;5.306;2022-07-29T05:57:06;23.70;53.30
27188;DHT22;14708;50.872;5.306;2022-07-29T05:59:37;23.70;53.30
27188;DHT22;14708;50.872;5.306;2022-07-29T06:02:03;23.70;53.30
27188;DHT22;14708;50.872;5.306;2022-07-29T06:04:31;23.70;52.70
27188;DHT22;14708;50.872;5.306;2022-07-29T06:06:56;23.70;52.90
27188;DHT22;14708;50.872;5.306;2022-07-29T06:09:22;23.70;53.20
27188;DHT22;14708;50.872;5.306;2022-07-29T06:11:48;23.80;53.50
27188;DHT22;14708;50.872;5.306;2022-07-29T06:14:14;23.70;54.60
27188;DHT22;14708;50.872;5.306;2022-07-29T06:16:39;23.70;54.20
27188;DHT22;14708;50.872;5.306;2022-07-29T06:19:05;23.70;54.60
27188;DHT22;14708;50.872;5.306;2022-07-29T06:21:31;23.60;54.70
27188;DHT22;14708;50.872;5.306;2022-07-29T06:23:56;23.60;54.90
27188;DHT22;14708;50.872;5.306;2022-07-29T06:26:22;23.70;55.00
27188;DHT22;14708;50.872;5.306;2022-07-29T06:28:48;23.60;55.30
27188;DHT22;14708;50.872;5.306;2022-07-29T06:31:14;23.60;55.50
27188;DHT22;14708;50.872;5.306;2022-07-29T06:33:39;23.60;55.70
27188;DHT22;14708;50.872;5.306;2022-07-29T06:36:05;23.60;55.60
27188;DHT22;14708;50.872;5.306;2022-07-29T06:38:32;23.60;56.10
27188;DHT22;14708;50.872;5.306;2022-07-29T06:40:58;23.60;56.40
27188;DHT22;14708;50.872;5.306;2022-07-29T06:43:38;23.60;56.60
27188;DHT22;14708;50.872;5.306;2022-07-29T06:46:08;23.60;56.70
27188;DHT22;14708;50.872;5.306;2022-07-29T06:48:35;23.60;56.70
27188;DHT22;14708;50.872;5.306;2022-07-29T06:51:04;23.60;56.50
27188;DHT22;14708;50.872;5.306;2022-07-29T06:53:31;23.60;56.50
27188;DHT22;14708;50.872;5.306;2022-07-29T06:55:57;23.60;56.50
27188;DHT22;14708;50.872;5.306;2022-07-29T06:58:24;23.60;56.30
27188;DHT22;14708;50.872;5.306;2022-07-29T07:00:50;23.70;56.20
27188;DHT22;14708;50.872;5.306;2022-07-29T07:03:17;23.70;56.10
27188;DHT22;14708;50.872;5.306;2022-07-29T07:05:44;23.70;56.30
27188;DHT22;14708;50.872;5.306;2022-07-29T07:08:10;23.60;56.20
27188;DHT22;14708;50.872;5.306;2022-07-29T07:10:36;23.70;56.00
27188;DHT22;14708;50.872;5.306;2022-07-29T07:13:02;23.70;55.70
27188;DHT22;14708;50.872;5.306;2022-07-29T07:15:28;23.70;55.70
27188;DHT22;14708;50.872;5.306;2022-07-29T07:17:54;23.70;55.60
27188;DHT22;14708;50.872;5.306;2022-07-29T07:20:20;23.70;55.80
27188;DHT22;14708;50.872;5.306;2022-07-29T07:22:45;23.70;55.90
27188;DHT22;14708;50.872;5.306;2022-07-29T07:25:11;23.80;55.90
27188;DHT22;14708;50.872;5.306;2022-07-29T07:27:37;23.80;56.30
27188;DHT22;14708;50.872;5.306;2022-07-29T07:30:05;23.80;56.30
27188;DHT22;14708;50.872;5.306;2022-07-29T07:32:34;23.80;56.10
27188;DHT22;14708;50.872;5.306;2022-07-29T07:35:00;23.70;55.70
27188;DHT22;14708;50.872;5.306;2022-07-29T07:37:26;23.70;55.90
27188;DHT22;14708;50.872;5.306;2022-07-29T07:39:52;23.80;55.90
27188;DHT22;14708;50.872;5.306;2022-07-29T07:42:18;23.70;55.90
27188;DHT22;14708;50.872;5.306;2022-07-29T07:44:44;23.80;55.90
27188;DHT22;14708;50.872;5.306;2022-07-29T07:47:11;23.80;55.70
27188;DHT22;14708;50.872;5.306;2022-07-29T07:49:37;23.70;55.50
27188;DHT22;14708;50.872;5.306;2022-07-29T07:52:03;23.80;55.60
27188;DHT22;14708;50.872;5.306;2022-07-29T07:54:29;23.80;55.50
27188;DHT22;14708;50.872;5.306;2022-07-29T07:56:55;23.80;55.50
27188;DHT22;14708;50.872;5.306;2022-07-29T07:59:20;23.90;56.00
27188;DHT22;14708;50.872;5.306;2022-07-29T08:01:46;23.90;55.30
27188;DHT22;14708;50.872;5.306;2022-07-29T08:04:11;23.90;55.70
27188;DHT22;14708;50.872;5.306;2022-07-29T08:06:37;24.00;55.90
27188;DHT22;14708;50.872;5.306;2022-07-29T08:09:03;24.00;55.50
27188;DHT22;14708;50.872;5.306;2022-07-29T08:11:30;23.90;56.10
27188;DHT22;14708;50.872;5.306;2022-07-29T08:13:56;23.90;55.70
27188;DHT22;14708;50.872;5.306;2022-07-29T08:16:21;23.90;55.70
27188;DHT22;14708;50.872;5.306;2022-07-29T08:18:47;23.90;55.50
27188;DHT22;14708;50.872;5.306;2022-07-29T08:21:14;23.90;55.80
27188;DHT22;14708;50.872;5.306;2022-07-29T08:23:41;23.90;56.00
27188;DHT22;14708;50.872;5.306;2022-07-29T08:26:18;23.90;56.00
27188;DHT22;14708;50.872;5.306;2022-07-29T08:28:45;24.00;56.10
27188;DHT22;14708;50.872;5.306;2022-07-29T08:31:13;24.00;56.00
27188;DHT22;14708;50.872;5.306;2022-07-29T08:33:38;24.00;55.70
27188;DHT22;14708;50.872;5.306;2022-07-29T08:36:05;24.00;55.80
27188;DHT22;14708;50.872;5.306;2022-07-29T08:38:33;24.00;55.30
27188;DHT22;14708;50.872;5.306;2022-07-29T08:41:02;23.90;55.50
27188;DHT22;14708;50.872;5.306;2022-07-29T08:43:28;24.00;55.70
27188;DHT22;14708;50.872;5.306;2022-07-29T08:45:54;24.00;55.60
27188;DHT22;14708;50.872;5.306;2022-07-29T08:48:22;24.00;55.80
27188;DHT22;14708;50.872;5.306;2022-07-29T08:50:52;24.00;55.80
27188;DHT22;14708;50.872;5.306;2022-07-29T08:53:19;24.00;55.80
27188;DHT22;14708;50.872;5.306;2022-07-29T08:55:48;24.00;55.80
27188;DHT22;14708;50.872;5.306;2022-07-29T08:58:17;24.00;55.60
27188;DHT22;14708;50.872;5.306;2022-07-29T09:00:47;24.10;55.50
27188;DHT22;14708;50.872;5.306;2022-07-29T09:03:17;24.10;55.50
27188;DHT22;14708;50.872;5.306;2022-07-29T09:05:46;24.10;55.60
27188;DHT22;14708;50.872;5.306;2022-07-29T09:08:16;24.10;55.40
27188;DHT22;14708;50.872;5.306;2022-07-29T09:10:42;24.10;55.60
27188;DHT22;14708;50.872;5.306;2022-07-29T09:13:08;24.10;55.70
27188;DHT22;14708;50.872;5.306;2022-07-29T09:15:34;24.10;55.70
27188;DHT22;14708;50.872;5.306;2022-07-29T09:17:59;24.20;55.80
27188;DHT22;14708;50.872;5.306;2022-07-29T09:20:26;24.10;55.70
27188;DHT22;14708;50.872;5.306;2022-07-29T09:23:12;24.20;56.10
27188;DHT22;14708;50.872;5.306;2022-07-29T09:25:40;24.20;56.10
27188;DHT22;14708;50.872;5.306;2022-07-29T09:28:17;24.20;56.20
27188;DHT22;14708;50.872;5.306;2022-07-29T09:30:53;24.20;56.10
27188;DHT22;14708;50.872;5.306;2022-07-29T09:33:22;24.20;56.10
27188;DHT22;14708;50.872;5.306;2022-07-29T09:36:04;24.20;56.50
27188;DHT22;14708;50.872;5.306;2022-07-29T09:38:30;24.20;56.20
27188;DHT22;14708;50.872;5.306;2022-07-29T09:41:01;24.20;56.40
27188;DHT22;14708;50.872;5.306;2022-07-29T09:43:27;24.30;56.50
27188;DHT22;14708;50.872;5.306;2022-07-29T09:45:53;24.20;56.90
27188;DHT22;14708;50.872;5.306;2022-07-29T09:48:24;24.30;56.60
27188;DHT22;14708;50.872;5.306;2022-07-29T09:50:50;24.30;56.80
27188;DHT22;14708;50.872;5.306;2022-07-29T09:53:37;24.30;56.60
27188;DHT22;14708;50.872;5.306;2022-07-29T09:56:04;24.30;56.70
27188;DHT22;14708;50.872;5.306;2022-07-29T09:58:30;24.30;56.40
27188;DHT22;14708;50.872;5.306;2022-07-29T10:00:59;24.30;56.50
27188;DHT22;14708;50.872;5.306;2022-07-29T10:03:25;24.30;56.70
27188;DHT22;14708;50.872;5.306;2022-07-29T10:06:08;24.30;56.20
27188;DHT22;14708;50.872;5.306;2022-07-29T10:08:34;24.30;56.30
27188;DHT22;14708;50.872;5.306;2022-07-29T10:11:29;24.30;56.30
27188;DHT22;14708;50.872;5.306;2022-07-29T10:13:54;24.30;56.10
27188;DHT22;14708;50.872;5.306;2022-07-29T10:16:20;24.30;56.60
27188;DHT22;14708;50.872;5.306;2022-07-29T10:18:46;24.30;56.20
27188;DHT22;14708;50.872;5.306;2022-07-29T10:21:12;24.30;56.20
27188;DHT22;14708;50.872;5.306;2022-07-29T10:23:38;24.30;56.40
27188;DHT22;14708;50.872;5.306;2022-07-29T10:28:31;24.30;56.30
27188;DHT22;14708;50.872;5.306;2022-07-29T10:31:03;24.40;56.10
27188;DHT22;14708;50.872;5.306;2022-07-29T10:34:04;24.30;56.20
27188;DHT22;14708;50.872;5.306;2022-07-29T10:37:02;24.30;56.10
27188;DHT22;14708;50.872;5.306;2022-07-29T10:39:45;24.40;55.80
27188;DHT22;14708;50.872;5.306;2022-07-29T10:42:22;24.40;55.80
27188;DHT22;14708;50.872;5.306;2022-07-29T10:44:50;24.40;55.90
27188;DHT22;14708;50.872;5.306;2022-07-29T10:47:23;24.40;55.80
27188;DHT22;14708;50.872;5.306;2022-07-29T10:50:00;24.40;56.40
27188;DHT22;14708;50.872;5.306;2022-07-29T10:55:34;24.40;56.10
27188;DHT22;14708;50.872;5.306;2022-07-29T10:58:22;24.40;56.50
27188;DHT22;14708;50.872;5.306;2022-07-29T11:00:51;24.40;56.30
27188;DHT22;14708;50.872;5.306;2022-07-29T11:03:43;24.40;56.50
27188;DHT22;14708;50.872;5.306;2022-07-29T11:06:10;24.40;56.50
27188;DHT22;14708;50.872;5.306;2022-07-29T11:08:36;24.40;56.30
27188;DHT22;14708;50.872;5.306;2022-07-29T11:13:50;24.40;56.60
27188;DHT22;14708;50.872;5.306;2022-07-29T11:16:18;24.40;56.60
27188;DHT22;14708;50.872;5.306;2022-07-29T11:21:40;24.40;56.40
27188;DHT22;14708;50.872;5.306;2022-07-29T11:24:18;24.40;56.20
27188;DHT22;14708;50.872;5.306;2022-07-29T11:27:11;24.40;56.10
27188;DHT22;14708;50.872;5.306;2022-07-29T11:29:48;24.40;55.90
27188;DHT22;14708;50.872;5.306;2022-07-29T11:32:15;24.40;55.90
27188;DHT22;14708;50.872;5.306;2022-07-29T11:34:44;24.40;55.80
27188;DHT22;14708;50.872;5.306;2022-07-29T11:45:11;24.50;55.40
27188;DHT22;14708;50.872;5.306;2022-07-29T11:47:41;24.40;55.10
27188;DHT22;14708;50.872;5.306;2022-07-29T11:50:12;24.50;55.20
27188;DHT22;14708;50.872;5.306;2022-07-29T11:52:43;24.50;55.10
27188;DHT22;14708;50.872;5.306;2022-07-29T11:55:18;24.50;55.00
27188;DHT22;14708;50.872;5.306;2022-07-29T11:57:49;24.50;54.80
27188;DHT22;14708;50.872;5.306;2022-07-29T12:00:33;24.50;54.70
27188;DHT22;14708;50.872;5.306;2022-07-29T12:03:01;24.50;54.80
27188;DHT22;14708;50.872;5.306;2022-07-29T12:05:38;24.50;54.70
27188;DHT22;14708;50.872;5.306;2022-07-29T12:08:09;24.50;54.50
27188;DHT22;14708;50.872;5.306;2022-07-29T12:10:35;24.50;54.60
27188;DHT22;14708;50.872;5.306;2022-07-29T12:13:04;24.50;54.50
27188;DHT22;14708;50.872;5.306;2022-07-29T12:15:31;24.50;54.40
27188;DHT22;14708;50.872;5.306;2022-07-29T12:17:56;24.50;54.40
27188;DHT22;14708;50.872;5.306;2022-07-29T12:20:27;24.50;54.30
27188;DHT22;14708;50.872;5.306;2022-07-29T12:22:54;24.50;54.20
27188;DHT22;14708;50.872;5.306;2022-07-29T12:25:21;24.60;54.00
27188;DHT22;14708;50.872;5.306;2022-07-29T12:27:47;24.60;53.90
27188;DHT22;14708;50.872;5.306;2022-07-29T12:30:22;24.60;53.90
27188;DHT22;14708;50.872;5.306;2022-07-29T12:32:49;24.60;54.00
27188;DHT22;14708;50.872;5.306;2022-07-29T12:35:17;24.60;53.80
27188;DHT22;14708;50.872;5.306;2022-07-29T12:37:44;24.60;53.70
27188;DHT22;14708;50.872;5.306;2022-07-29T12:40:12;24.60;53.60
27188;DHT22;14708;50.872;5.306;2022-07-29T12:42:38;24.70;53.50
27188;DHT22;14708;50.872;5.306;2022-07-29T12:45:07;24.70;53.60
27188;DHT22;14708;50.872;5.306;2022-07-29T12:47:33;24.70;53.10
27188;DHT22;14708;50.872;5.306;2022-07-29T12:50:15;24.70;53.30
27188;DHT22;14708;50.872;5.306;2022-07-29T12:52:44;24.60;53.40
27188;DHT22;14708;50.872;5.306;2022-07-29T12:55:10;24.60;53.50
27188;DHT22;14708;50.872;5.306;2022-07-29T12:57:49;24.60;53.30
27188;DHT22;14708;50.872;5.306;2022-07-29T13:00:22;24.60;53.30
27188;DHT22;14708;50.872;5.306;2022-07-29T13:02:55;24.60;53.30
27188;DHT22;14708;50.872;5.306;2022-07-29T13:05:21;24.60;53.40
27188;DHT22;14708;50.872;5.306;2022-07-29T13:07:47;24.60;53.50
27188;DHT22;14708;50.872;5.306;2022-07-29T13:10:17;24.60;53.40
27188;DHT22;14708;50.872;5.306;2022-07-29T13:13:09;24.60;53.30
27188;DHT22;14708;50.872;5.306;2022-07-29T13:15:40;24.60;53.20
27188;DHT22;14708;50.872;5.306;2022-07-29T13:18:29;24.60;53.40
27188;DHT22;14708;50.872;5.306;2022-07-29T13:20:55;24.70;53.50
27188;DHT22;14708;50.872;5.306;2022-07-29T13:23:21;24.70;52.60
27188;DHT22;14708;50.872;5.306;2022-07-29T13:25:47;24.70;53.00
27188;DHT22;14708;50.872;5.306;2022-07-29T13:28:13;24.70;65.00
27188;DHT22;14708;50.872;5.306;2022-07-29T13:30:40;24.80;54.60
27188;DHT22;14708;50.872;5.306;2022-07-29T13:33:06;24.70;52.50
27188;DHT22;14708;50.872;5.306;2022-07-29T13:35:32;24.80;53.00
27188;DHT22;14708;50.872;5.306;2022-07-29T13:37:57;24.90;53.20
27188;DHT22;14708;50.872;5.306;2022-07-29T13:40:23;24.90;52.70
27188;DHT22;14708;50.872;5.306;2022-07-29T13:42:49;25.00;52.20
27188;DHT22;14708;50.872;5.306;2022-07-29T13:45:15;25.00;52.00
27188;DHT22;14708;50.872;5.306;2022-07-29T13:47:41;25.00;51.50
27188;DHT22;14708;50.872;5.306;2022-07-29T13:50:08;25.10;51.70
27188;DHT22;14708;50.872;5.306;2022-07-29T13:52:36;25.10;51.10
27188;DHT22;14708;50.872;5.306;2022-07-29T13:55:04;25.20;50.70
27188;DHT22;14708;50.872;5.306;2022-07-29T13:57:29;25.10;51.50
27188;DHT22;14708;50.872;5.306;2022-07-29T13:59:55;25.20;51.50
27188;DHT22;14708;50.872;5.306;2022-07-29T14:02:21;25.20;51.70
27188;DHT22;14708;50.872;5.306;2022-07-29T14:04:47;25.30;51.50
27188;DHT22;14708;50.872;5.306;2022-07-29T14:07:13;25.40;51.70
27188;DHT22;14708;50.872;5.306;2022-07-29T14:09:38;25.40;50.80
27188;DHT22;14708;50.872;5.306;2022-07-29T14:12:04;25.50;50.80
27188;DHT22;14708;50.872;5.306;2022-07-29T14:14:30;25.50;57.00
27188;DHT22;14708;50.872;5.306;2022-07-29T14:16:58;25.60;53.10
27188;DHT22;14708;50.872;5.306;2022-07-29T14:19:23;25.60;56.70
27188;DHT22;14708;50.872;5.306;2022-07-29T14:21:49;25.70;59.30
27188;DHT22;14708;50.872;5.306;2022-07-29T14:24:14;25.60;58.80
27188;DHT22;14708;50.872;5.306;2022-07-29T14:26:40;25.60;59.10
27188;DHT22;14708;50.872;5.306;2022-07-29T14:29:06;25.60;63.10
27188;DHT22;14708;50.872;5.306;2022-07-29T14:31:32;25.50;65.50
27188;DHT22;14708;50.872;5.306;2022-07-29T14:33:58;25.50;60.50
27188;DHT22;14708;50.872;5.306;2022-07-29T14:36:23;25.50;58.50
27188;DHT22;14708;50.872;5.306;2022-07-29T14:38:49;25.50;57.00
27188;DHT22;14708;50.872;5.306;2022-07-29T14:41:17;25.60;56.90
27188;DHT22;14708;50.872;5.306;2022-07-29T14:43:42;25.50;56.80
27188;DHT22;14708;50.872;5.306;2022-07-29T14:46:08;25.50;56.60
27188;DHT22;14708;50.872;5.306;2022-07-29T14:48:34;25.50;56.20
27188;DHT22;14708;50.872;5.306;2022-07-29T14:51:00;25.60;56.40
27188;DHT22;14708;50.872;5.306;2022-07-29T14:53:26;25.60;56.30
27188;DHT22;14708;50.872;5.306;2022-07-29T14:55:51;25.60;56.50
27188;DHT22;14708;50.872;5.306;2022-07-29T14:58:17;25.70;55.80
27188;DHT22;14708;50.872;5.306;2022-07-29T15:00:42;25.60;55.90
27188;DHT22;14708;50.872;5.306;2022-07-29T15:03:08;25.60;55.90
27188;DHT22;14708;50.872;5.306;2022-07-29T15:05:37;25.60;55.70
27188;DHT22;14708;50.872;5.306;2022-07-29T15:08:02;25.60;55.60
27188;DHT22;14708;50.872;5.306;2022-07-29T15:10:28;25.60;55.70
27188;DHT22;14708;50.872;5.306;2022-07-29T15:12:55;25.70;54.40
27188;DHT22;14708;50.872;5.306;2022-07-29T15:15:21;25.60;53.90
27188;DHT22;14708;50.872;5.306;2022-07-29T15:17:46;25.70;55.40
27188;DHT22;14708;50.872;5.306;2022-07-29T15:20:13;25.70;55.10
27188;DHT22;14708;50.872;5.306;2022-07-29T15:22:39;25.70;55.00
27188;DHT22;14708;50.872;5.306;2022-07-29T15:25:07;25.70;54.90
27188;DHT22;14708;50.872;5.306;2022-07-29T15:27:33;25.70;55.00
27188;DHT22;14708;50.872;5.306;2022-07-29T15:29:59;25.80;55.00
27188;DHT22;14708;50.872;5.306;2022-07-29T15:32:25;25.70;55.00
27188;DHT22;14708;50.872;5.306;2022-07-29T15:34:51;25.60;55.00
27188;DHT22;14708;50.872;5.306;2022-07-29T15:37:16;25.60;54.80
27188;DHT22;14708;50.872;5.306;2022-07-29T15:39:42;25.50;54.90
27188;DHT22;14708;50.872;5.306;2022-07-29T15:42:07;25.50;55.00
27188;DHT22;14708;50.872;5.306;2022-07-29T15:44:33;25.50;54.80
27188;DHT22;14708;50.872;5.306;2022-07-29T15:46:59;25.50;55.00
27188;DHT22;14708;50.872;5.306;2022-07-29T15:49:49;25.50;54.80
27188;DHT22;14708;50.872;5.306;2022-07-29T15:52:18;25.50;54.70
27188;DHT22;14708;50.872;5.306;2022-07-29T15:54:44;25.50;55.00
27188;DHT22;14708;50.872;5.306;2022-07-29T15:57:10;25.50;54.60
27188;DHT22;14708;50.872;5.306;2022-07-29T15:59:36;25.50;54.50
27188;DHT22;14708;50.872;5.306;2022-07-29T16:02:02;25.50;54.50
27188;DHT22;14708;50.872;5.306;2022-07-29T16:04:28;25.50;54.30
27188;DHT22;14708;50.872;5.306;2022-07-29T16:06:54;25.50;54.40